sensor_id;sensor_type;location;lat;lon;timestamp;pressure;altitude;pressure_sealevel;temperature;humidity
57048;BME280;42934;54.294;18.598;2023-08-06T00:01:02;100130.44;;;17.51;88.33
57048;BME280;42934;54.294;18.598;2023-08-06T00:03:48;100124.06;;;17.66;87.39
57048;BME280;42934;54.294;18.598;2023-08-06T00:06:19;100115.13;;;17.67;87.81
57048;BME280;42934;54.294;18.598;2023-08-06T00:08:48;100121.94;;;17.71;87.48
57048;BME280;42934;54.294;18.598;2023-08-06T00:11:17;100113.88;;;17.85;87.24
57048;BME280;42934;54.294;18.598;2023-08-06T00:13:47;100118.84;;;17.77;87.57
57048;BME280;42934;54.294;18.598;2023-08-06T00:16:16;100110.47;;;17.83;87.41
57048;BME280;42934;54.294;18.598;2023-08-06T00:18:45;100114.19;;;17.81;87.71
57048;BME280;42934;54.294;18.598;2023-08-06T00:21:15;100120.13;;;17.59;89.22
57048;BME280;42934;54.294;18.598;2023-08-06T00:23:45;100123.41;;;17.62;89.11
57048;BME280;42934;54.294;18.598;2023-08-06T00:26:33;100120.88;;;17.61;89.60
57048;BME280;42934;54.294;18.598;2023-08-06T00:29:02;100118.53;;;17.82;88.30
57048;BME280;42934;54.294;18.598;2023-08-06T00:31:32;100117.13;;;17.76;89.17
57048;BME280;42934;54.294;18.598;2023-08-06T00:34:01;100120.25;;;17.83;88.78
57048;BME280;42934;54.294;18.598;2023-08-06T00:36:30;100113.63;;;17.88;88.63
57048;BME280;42934;54.294;18.598;2023-08-06T00:39:02;100102.56;;;17.95;88.28
57048;BME280;42934;54.294;18.598;2023-08-06T00:41:32;100092.81;;;17.82;89.39
57048;BME280;42934;54.294;18.598;2023-08-06T00:44:01;100100.06;;;17.80;89.71
57048;BME280;42934;54.294;18.598;2023-08-06T00:46:30;100095.28;;;17.85;89.42
57048;BME280;42934;54.294;18.598;2023-08-06T00:49:00;100081.31;;;17.95;89.39
57048;BME280;42934;54.294;18.598;2023-08-06T00:51:30;100067.13;;;17.83;89.50
57048;BME280;42934;54.294;18.598;2023-08-06T00:54:02;100057.84;;;17.76;89.18
57048;BME280;42934;54.294;18.598;2023-08-06T00:56:32;100043.94;;;17.85;88.65
57048;BME280;42934;54.294;18.598;2023-08-06T00:59:04;100042.78;;;17.89;88.01
57048;BME280;42934;54.294;18.598;2023-08-06T01:01:33;100034.19;;;17.73;88.66
57048;BME280;42934;54.294;18.598;2023-08-06T01:04:03;100042.16;;;17.85;88.42
57048;BME280;42934;54.294;18.598;2023-08-06T01:06:38;100050.63;;;17.90;87.70
57048;BME280;42934;54.294;18.598;2023-08-06T01:09:19;100049.59;;;17.80;88.62
57048;BME280;42934;54.294;18.598;2023-08-06T01:11:59;100033.31;;;17.85;88.60
57048;BME280;42934;54.294;18.598;2023-08-06T01:14:39;100034.34;;;17.95;87.51
57048;BME280;42934;54.294;18.598;2023-08-06T01:17:13;100021.53;;;17.89;87.55
57048;BME280;42934;54.294;18.598;2023-08-06T01:19:43;100024.84;;;17.80;88.25
57048;BME280;42934;54.294;18.598;2023-08-06T01:22:13;100012.72;;;17.88;87.56
57048;BME280;42934;54.294;18.598;2023-08-06T01:24:48;100002.88;;;17.78;87.57
57048;BME280;42934;54.294;18.598;2023-08-06T01:27:23;99994.69;;;17.68;88.42
57048;BME280;42934;54.294;18.598;2023-08-06T01:30:01;99995.19;;;17.73;87.86
57048;BME280;42934;54.294;18.598;2023-08-06T01:32:34;99998.19;;;17.68;87.88
57048;BME280;42934;54.294;18.598;2023-08-06T01:35:05;100000.09;;;17.66;87.83
57048;BME280;42934;54.294;18.598;2023-08-06T01:37:36;100004.44;;;17.67;88.15
57048;BME280;42934;54.294;18.598;2023-08-06T01:40:07;100007.63;;;17.73;87.56
57048;BME280;42934;54.294;18.598;2023-08-06T01:42:39;99995.75;;;17.65;87.94
57048;BME280;42934;54.294;18.598;2023-08-06T01:45:09;99993.41;;;17.74;87.56
57048;BME280;42934;54.294;18.598;2023-08-06T01:47:38;99986.59;;;17.69;87.57
57048;BME280;42934;54.294;18.598;2023-08-06T01:50:08;99979.47;;;17.83;87.03
57048;BME280;42934;54.294;18.598;2023-08-06T01:52:39;99978.63;;;17.82;86.65
57048;BME280;42934;54.294;18.598;2023-08-06T01:55:08;99959.97;;;17.58;87.66
57048;BME280;42934;54.294;18.598;2023-08-06T01:57:38;99964.84;;;17.64;87.48
57048;BME280;42934;54.294;18.598;2023-08-06T02:00:08;99964.75;;;17.66;87.13
57048;BME280;42934;54.294;18.598;2023-08-06T02:02:40;99963.84;;;17.54;87.59
57048;BME280;42934;54.294;18.598;2023-08-06T02:05:10;99955.06;;;17.41;88.37
57048;BME280;42934;54.294;18.598;2023-08-06T02:07:41;99952.31;;;17.42;88.46
57048;BME280;42934;54.294;18.598;2023-08-06T02:10:11;99951.09;;;17.46;87.97
57048;BME280;42934;54.294;18.598;2023-08-06T02:12:40;99946.03;;;17.67;86.75
57048;BME280;42934;54.294;18.598;2023-08-06T02:15:10;99944.22;;;17.44;87.89
57048;BME280;42934;54.294;18.598;2023-08-06T02:17:39;99922.88;;;17.45;88.08
57048;BME280;42934;54.294;18.598;2023-08-06T02:20:09;99903.91;;;17.39;88.60
57048;BME280;42934;54.294;18.598;2023-08-06T02:22:40;99898.09;;;17.34;88.98
57048;BME280;42934;54.294;18.598;2023-08-06T02:25:10;99892.41;;;17.14;90.50
57048;BME280;42934;54.294;18.598;2023-08-06T02:27:39;99893.75;;;17.33;89.59
57048;BME280;42934;54.294;18.598;2023-08-06T02:30:08;99887.06;;;17.27;89.98
57048;BME280;42934;54.294;18.598;2023-08-06T02:32:39;99876.69;;;17.24;90.23
57048;BME280;42934;54.294;18.598;2023-08-06T02:35:09;99870.72;;;17.20;90.26
57048;BME280;42934;54.294;18.598;2023-08-06T02:37:40;99861.03;;;17.32;89.83
57048;BME280;42934;54.294;18.598;2023-08-06T02:40:10;99864.25;;;17.24;90.48
57048;BME280;42934;54.294;18.598;2023-08-06T02:42:40;99857.38;;;17.22;90.79
57048;BME280;42934;54.294;18.598;2023-08-06T02:45:09;99854.88;;;17.32;89.84
57048;BME280;42934;54.294;18.598;2023-08-06T02:47:39;99841.13;;;17.27;89.84
57048;BME280;42934;54.294;18.598;2023-08-06T02:50:09;99847.44;;;17.13;90.79
57048;BME280;42934;54.294;18.598;2023-08-06T02:52:38;99844.22;;;17.20;90.19
57048;BME280;42934;54.294;18.598;2023-08-06T02:55:11;99837.72;;;17.00;91.49
57048;BME280;42934;54.294;18.598;2023-08-06T02:57:44;99829.72;;;17.13;91.10
57048;BME280;42934;54.294;18.598;2023-08-06T03:00:13;99821.31;;;17.19;91.01
57048;BME280;42934;54.294;18.598;2023-08-06T03:02:43;99810.69;;;17.19;90.98
57048;BME280;42934;54.294;18.598;2023-08-06T03:05:23;99795.38;;;17.23;91.83
57048;BME280;42934;54.294;18.598;2023-08-06T03:07:53;99774.53;;;17.18;91.75
57048;BME280;42934;54.294;18.598;2023-08-06T03:10:27;99739.63;;;17.12;92.37
57048;BME280;42934;54.294;18.598;2023-08-06T03:13:01;99712.44;;;17.21;92.90
57048;BME280;42934;54.294;18.598;2023-08-06T03:15:30;99669.44;;;17.05;93.95
57048;BME280;42934;54.294;18.598;2023-08-06T03:18:00;99613.78;;;17.16;93.92
57048;BME280;42934;54.294;18.598;2023-08-06T03:20:29;99561.94;;;17.23;94.22
57048;BME280;42934;54.294;18.598;2023-08-06T03:22:59;99533.81;;;17.20;95.04
57048;BME280;42934;54.294;18.598;2023-08-06T03:25:31;99547.31;;;17.17;95.69
57048;BME280;42934;54.294;18.598;2023-08-06T03:28:04;99572.06;;;17.18;96.00
57048;BME280;42934;54.294;18.598;2023-08-06T03:30:35;99592.19;;;17.09;97.36
57048;BME280;42934;54.294;18.598;2023-08-06T03:33:04;99590.63;;;17.29;96.20
57048;BME280;42934;54.294;18.598;2023-08-06T03:35:33;99594.63;;;17.35;96.13
57048;BME280;42934;54.294;18.598;2023-08-06T03:38:03;99612.81;;;17.28;96.74
57048;BME280;42934;54.294;18.598;2023-08-06T03:40:35;99635.41;;;17.45;96.06
57048;BME280;42934;54.294;18.598;2023-08-06T03:43:05;99660.13;;;17.45;96.20
57048;BME280;42934;54.294;18.598;2023-08-06T03:45:34;99674.75;;;17.51;96.27
57048;BME280;42934;54.294;18.598;2023-08-06T03:48:04;99673.06;;;17.50;96.03
57048;BME280;42934;54.294;18.598;2023-08-06T03:50:33;99666.56;;;17.54;96.57
57048;BME280;42934;54.294;18.598;2023-08-06T03:53:03;99675.72;;;17.50;96.57
57048;BME280;42934;54.294;18.598;2023-08-06T03:55:33;99676.34;;;17.65;96.39
57048;BME280;42934;54.294;18.598;2023-08-06T03:58:03;99668.00;;;17.69;95.99
57048;BME280;42934;54.294;18.598;2023-08-06T04:00:32;99657.53;;;17.79;95.76
57048;BME280;42934;54.294;18.598;2023-08-06T04:03:02;99644.72;;;17.73;96.10
57048;BME280;42934;54.294;18.598;2023-08-06T04:05:32;99626.25;;;17.71;96.58
57048;BME280;42934;54.294;18.598;2023-08-06T04:08:01;99623.25;;;17.87;95.58
57048;BME280;42934;54.294;18.598;2023-08-06T04:10:32;99627.25;;;17.82;96.14
57048;BME280;42934;54.294;18.598;2023-08-06T04:13:02;99616.03;;;17.78;96.69
57048;BME280;42934;54.294;18.598;2023-08-06T04:15:33;99610.22;;;17.84;96.52
57048;BME280;42934;54.294;18.598;2023-08-06T04:18:02;99596.34;;;17.81;96.58
57048;BME280;42934;54.294;18.598;2023-08-06T04:20:31;99605.50;;;17.88;96.89
57048;BME280;42934;54.294;18.598;2023-08-06T04:23:06;99599.50;;;17.86;97.10
57048;BME280;42934;54.294;18.598;2023-08-06T04:25:37;99585.97;;;17.89;96.64
57048;BME280;42934;54.294;18.598;2023-08-06T04:28:07;99588.47;;;17.90;96.62
57048;BME280;42934;54.294;18.598;2023-08-06T04:30:37;99596.59;;;18.00;96.25
57048;BME280;42934;54.294;18.598;2023-08-06T04:33:08;99586.22;;;17.97;96.74
57048;BME280;42934;54.294;18.598;2023-08-06T04:35:38;99560.31;;;18.10;95.96
57048;BME280;42934;54.294;18.598;2023-08-06T04:38:07;99538.59;;;18.05;96.33
57048;BME280;42934;54.294;18.598;2023-08-06T04:40:38;99499.25;;;17.99;96.60
57048;BME280;42934;54.294;18.598;2023-08-06T04:43:08;99516.66;;;18.03;96.73
57048;BME280;42934;54.294;18.598;2023-08-06T04:45:37;99532.44;;;18.05;96.73
57048;BME280;42934;54.294;18.598;2023-08-06T04:48:06;99547.91;;;18.00;97.08
57048;BME280;42934;54.294;18.598;2023-08-06T04:50:36;99558.03;;;18.06;97.24
57048;BME280;42934;54.294;18.598;2023-08-06T04:53:05;99559.72;;;18.18;96.51
57048;BME280;42934;54.294;18.598;2023-08-06T04:55:34;99549.78;;;18.20;96.13
57048;BME280;42934;54.294;18.598;2023-08-06T04:58:05;99556.81;;;18.21;96.38
57048;BME280;42934;54.294;18.598;2023-08-06T05:00:34;99555.97;;;18.21;96.76
57048;BME280;42934;54.294;18.598;2023-08-06T05:03:04;99554.59;;;18.26;96.26
57048;BME280;42934;54.294;18.598;2023-08-06T05:05:33;99546.84;;;18.34;96.15
57048;BME280;42934;54.294;18.598;2023-08-06T05:08:03;99549.38;;;18.36;95.32
57048;BME280;42934;54.294;18.598;2023-08-06T05:10:32;99556.53;;;18.24;96.40
57048;BME280;42934;54.294;18.598;2023-08-06T05:13:01;99563.28;;;18.28;95.79
57048;BME280;42934;54.294;18.598;2023-08-06T05:15:32;99535.25;;;18.35;95.52
57048;BME280;42934;54.294;18.598;2023-08-06T05:18:01;99535.72;;;18.29;96.00
57048;BME280;42934;54.294;18.598;2023-08-06T05:20:30;99529.84;;;18.26;96.56
57048;BME280;42934;54.294;18.598;2023-08-06T05:23:00;99533.50;;;18.13;97.14
57048;BME280;42934;54.294;18.598;2023-08-06T05:25:29;99535.28;;;18.24;96.92
57048;BME280;42934;54.294;18.598;2023-08-06T05:27:59;99531.78;;;18.24;96.69
57048;BME280;42934;54.294;18.598;2023-08-06T05:30:31;99521.25;;;18.33;96.00
57048;BME280;42934;54.294;18.598;2023-08-06T05:33:00;99495.88;;;18.29;96.30
57048;BME280;42934;54.294;18.598;2023-08-06T05:35:29;99503.19;;;18.16;97.36
57048;BME280;42934;54.294;18.598;2023-08-06T05:37:58;99478.94;;;18.09;97.29
57048;BME280;42934;54.294;18.598;2023-08-06T05:40:28;99471.88;;;18.20;97.37
57048;BME280;42934;54.294;18.598;2023-08-06T05:42:57;99497.31;;;18.33;96.19
57048;BME280;42934;54.294;18.598;2023-08-06T05:45:26;99485.38;;;18.28;96.25
57048;BME280;42934;54.294;18.598;2023-08-06T05:47:57;99435.22;;;18.13;97.65
57048;BME280;42934;54.294;18.598;2023-08-06T05:50:26;99406.38;;;18.09;98.41
57048;BME280;42934;54.294;18.598;2023-08-06T05:52:56;99366.19;;;18.23;97.54
57048;BME280;42934;54.294;18.598;2023-08-06T05:55:28;99353.94;;;18.32;97.00
57048;BME280;42934;54.294;18.598;2023-08-06T05:57:59;99381.19;;;18.24;97.27
57048;BME280;42934;54.294;18.598;2023-08-06T06:00:28;99419.22;;;18.25;97.75
57048;BME280;42934;54.294;18.598;2023-08-06T06:02:59;99434.38;;;18.34;97.07
57048;BME280;42934;54.294;18.598;2023-08-06T06:05:29;99418.44;;;18.34;97.16
57048;BME280;42934;54.294;18.598;2023-08-06T06:07:59;99420.00;;;18.36;97.22
57048;BME280;42934;54.294;18.598;2023-08-06T06:10:28;99446.00;;;18.33;97.77
57048;BME280;42934;54.294;18.598;2023-08-06T06:12:57;99445.06;;;18.44;96.91
57048;BME280;42934;54.294;18.598;2023-08-06T06:15:26;99454.59;;;18.46;96.71
57048;BME280;42934;54.294;18.598;2023-08-06T06:17:56;99442.75;;;18.50;96.58
57048;BME280;42934;54.294;18.598;2023-08-06T06:20:27;99429.59;;;18.49;97.18
57048;BME280;42934;54.294;18.598;2023-08-06T06:22:56;99428.16;;;18.45;97.15
57048;BME280;42934;54.294;18.598;2023-08-06T06:25:25;99433.59;;;18.43;97.46
57048;BME280;42934;54.294;18.598;2023-08-06T06:27:55;99449.44;;;18.45;97.69
57048;BME280;42934;54.294;18.598;2023-08-06T06:30:24;99457.84;;;18.50;97.79
57048;BME280;42934;54.294;18.598;2023-08-06T06:32:53;99465.50;;;18.43;98.11
57048;BME280;42934;54.294;18.598;2023-08-06T06:35:22;99449.47;;;18.54;97.77
57048;BME280;42934;54.294;18.598;2023-08-06T06:37:53;99439.13;;;18.51;98.09
57048;BME280;42934;54.294;18.598;2023-08-06T06:40:22;99423.28;;;18.71;97.02
57048;BME280;42934;54.294;18.598;2023-08-06T06:42:52;99406.88;;;18.66;97.51
57048;BME280;42934;54.294;18.598;2023-08-06T06:45:21;99402.50;;;18.65;97.98
57048;BME280;42934;54.294;18.598;2023-08-06T06:47:50;99404.34;;;18.64;98.19
57048;BME280;42934;54.294;18.598;2023-08-06T06:50:19;99380.84;;;18.69;97.89
57048;BME280;42934;54.294;18.598;2023-08-06T06:52:49;99371.28;;;18.78;97.79
57048;BME280;42934;54.294;18.598;2023-08-06T06:55:19;99365.16;;;18.87;97.39
57048;BME280;42934;54.294;18.598;2023-08-06T06:57:49;99364.56;;;18.74;98.43
57048;BME280;42934;54.294;18.598;2023-08-06T07:00:18;99346.50;;;18.77;98.84
57048;BME280;42934;54.294;18.598;2023-08-06T07:02:47;99352.00;;;18.65;100.00
57048;BME280;42934;54.294;18.598;2023-08-06T07:05:17;99349.63;;;18.92;99.41
57048;BME280;42934;54.294;18.598;2023-08-06T07:07:46;99333.84;;;19.00;98.74
57048;BME280;42934;54.294;18.598;2023-08-06T07:10:15;99336.06;;;19.05;98.41
57048;BME280;42934;54.294;18.598;2023-08-06T07:12:46;99331.19;;;19.00;99.27
57048;BME280;42934;54.294;18.598;2023-08-06T07:15:15;99329.25;;;19.12;98.37
57048;BME280;42934;54.294;18.598;2023-08-06T07:17:45;99317.50;;;19.34;97.83
57048;BME280;42934;54.294;18.598;2023-08-06T07:20:14;99324.88;;;19.11;98.20
57048;BME280;42934;54.294;18.598;2023-08-06T07:22:44;99324.88;;;19.11;98.46
57048;BME280;42934;54.294;18.598;2023-08-06T07:25:13;99327.84;;;19.18;98.44
57048;BME280;42934;54.294;18.598;2023-08-06T07:27:44;99323.50;;;19.17;98.52
57048;BME280;42934;54.294;18.598;2023-08-06T07:30:13;99314.81;;;19.15;98.97
57048;BME280;42934;54.294;18.598;2023-08-06T07:32:43;99304.31;;;19.13;98.83
57048;BME280;42934;54.294;18.598;2023-08-06T07:35:12;99300.53;;;19.16;99.14
57048;BME280;42934;54.294;18.598;2023-08-06T07:37:42;99299.97;;;19.22;98.81
57048;BME280;42934;54.294;18.598;2023-08-06T07:40:12;99290.00;;;19.04;100.00
57048;BME280;42934;54.294;18.598;2023-08-06T07:42:41;99276.88;;;19.13;100.00
57048;BME280;42934;54.294;18.598;2023-08-06T07:45:12;99266.78;;;19.16;100.00
57048;BME280;42934;54.294;18.598;2023-08-06T07:47:43;99271.81;;;19.29;98.94
57048;BME280;42934;54.294;18.598;2023-08-06T07:50:12;99263.13;;;19.17;99.66
57048;BME280;42934;54.294;18.598;2023-08-06T07:52:42;99250.81;;;19.26;99.41
57048;BME280;42934;54.294;18.598;2023-08-06T07:55:11;99251.41;;;19.29;98.88
57048;BME280;42934;54.294;18.598;2023-08-06T07:57:41;99240.31;;;19.34;98.70
57048;BME280;42934;54.294;18.598;2023-08-06T08:00:12;99227.00;;;19.34;98.87
57048;BME280;42934;54.294;18.598;2023-08-06T08:02:41;99222.38;;;19.36;98.90
57048;BME280;42934;54.294;18.598;2023-08-06T08:05:11;99226.88;;;19.45;98.77
57048;BME280;42934;54.294;18.598;2023-08-06T08:07:40;99225.59;;;19.49;98.48
57048;BME280;42934;54.294;18.598;2023-08-06T08:10:09;99213.16;;;19.31;100.00
57048;BME280;42934;54.294;18.598;2023-08-06T08:12:39;99206.53;;;19.54;98.37
57048;BME280;42934;54.294;18.598;2023-08-06T08:15:09;99211.03;;;19.54;98.41
57048;BME280;42934;54.294;18.598;2023-08-06T08:17:39;99208.78;;;19.39;99.48
57048;BME280;42934;54.294;18.598;2023-08-06T08:20:09;99199.38;;;19.55;98.49
57048;BME280;42934;54.294;18.598;2023-08-06T08:22:39;99200.09;;;19.57;98.25
57048;BME280;42934;54.294;18.598;2023-08-06T08:25:08;99193.22;;;19.54;98.41
57048;BME280;42934;54.294;18.598;2023-08-06T08:27:38;99186.34;;;19.51;98.49
57048;BME280;42934;54.294;18.598;2023-08-06T08:30:08;99182.41;;;19.56;98.63
57048;BME280;42934;54.294;18.598;2023-08-06T08:32:37;99180.47;;;19.58;98.16
57048;BME280;42934;54.294;18.598;2023-08-06T08:35:08;99176.69;;;19.50;98.81
57048;BME280;42934;54.294;18.598;2023-08-06T08:37:40;99176.28;;;19.45;99.84
57048;BME280;42934;54.294;18.598;2023-08-06T08:40:10;99178.06;;;19.64;98.34
57048;BME280;42934;54.294;18.598;2023-08-06T08:42:39;99176.13;;;19.66;98.82
57048;BME280;42934;54.294;18.598;2023-08-06T08:45:12;99172.63;;;19.66;98.88
57048;BME280;42934;54.294;18.598;2023-08-06T08:47:43;99167.00;;;19.59;99.08
57048;BME280;42934;54.294;18.598;2023-08-06T08:50:16;99147.00;;;19.65;98.54
57048;BME280;42934;54.294;18.598;2023-08-06T08:52:48;99141.09;;;19.71;98.55
57048;BME280;42934;54.294;18.598;2023-08-06T08:55:20;99138.28;;;19.63;99.17
57048;BME280;42934;54.294;18.598;2023-08-06T08:57:51;99125.25;;;19.60;99.70
57048;BME280;42934;54.294;18.598;2023-08-06T09:00:20;99125.38;;;19.58;99.57
57048;BME280;42934;54.294;18.598;2023-08-06T09:02:50;99111.63;;;19.72;99.26
57048;BME280;42934;54.294;18.598;2023-08-06T09:05:22;99104.63;;;19.71;99.65
57048;BME280;42934;54.294;18.598;2023-08-06T09:07:53;99097.06;;;19.77;98.74
57048;BME280;42934;54.294;18.598;2023-08-06T09:10:23;99086.53;;;19.75;99.18
57048;BME280;42934;54.294;18.598;2023-08-06T09:12:53;99079.72;;;19.90;98.89
57048;BME280;42934;54.294;18.598;2023-08-06T09:15:25;99079.63;;;19.82;98.36
57048;BME280;42934;54.294;18.598;2023-08-06T09:17:55;99077.59;;;19.94;97.75
57048;BME280;42934;54.294;18.598;2023-08-06T09:20:26;99080.03;;;19.87;98.31
57048;BME280;42934;54.294;18.598;2023-08-06T09:22:55;99079.31;;;19.85;99.00
57048;BME280;42934;54.294;18.598;2023-08-06T09:25:25;99087.81;;;19.99;98.30
57048;BME280;42934;54.294;18.598;2023-08-06T09:27:56;99081.56;;;19.90;99.07
57048;BME280;42934;54.294;18.598;2023-08-06T09:30:30;99083.25;;;20.09;98.38
57048;BME280;42934;54.294;18.598;2023-08-06T09:33:00;99081.81;;;20.14;97.86
57048;BME280;42934;54.294;18.598;2023-08-06T09:35:31;99081.19;;;20.03;98.69
57048;BME280;42934;54.294;18.598;2023-08-06T09:38:08;99085.72;;;20.20;97.87
57048;BME280;42934;54.294;18.598;2023-08-06T09:40:39;99072.16;;;20.13;97.96
57048;BME280;42934;54.294;18.598;2023-08-06T09:43:08;99073.41;;;20.19;97.92
57048;BME280;42934;54.294;18.598;2023-08-06T09:45:40;99080.66;;;19.99;99.49
57048;BME280;42934;54.294;18.598;2023-08-06T09:48:11;99082.00;;;20.13;98.87
57048;BME280;42934;54.294;18.598;2023-08-06T09:50:41;99076.47;;;20.24;98.29
57048;BME280;42934;54.294;18.598;2023-08-06T09:53:11;99083.16;;;20.28;97.39
57048;BME280;42934;54.294;18.598;2023-08-06T09:55:41;99074.69;;;20.15;98.41
57048;BME280;42934;54.294;18.598;2023-08-06T09:58:10;99069.91;;;20.18;98.39
57048;BME280;42934;54.294;18.598;2023-08-06T10:00:39;99069.59;;;20.22;98.10
57048;BME280;42934;54.294;18.598;2023-08-06T10:03:10;99067.22;;;20.18;98.13
57048;BME280;42934;54.294;18.598;2023-08-06T10:05:45;99063.88;;;20.16;98.76
57048;BME280;42934;54.294;18.598;2023-08-06T10:08:16;99064.41;;;20.20;98.63
57048;BME280;42934;54.294;18.598;2023-08-06T10:10:46;99059.69;;;20.32;98.04
57048;BME280;42934;54.294;18.598;2023-08-06T10:13:15;99062.31;;;20.41;97.54
57048;BME280;42934;54.294;18.598;2023-08-06T10:15:47;99054.97;;;20.43;96.96
57048;BME280;42934;54.294;18.598;2023-08-06T10:18:17;99045.75;;;20.38;97.25
57048;BME280;42934;54.294;18.598;2023-08-06T10:20:50;99047.19;;;20.32;97.66
57048;BME280;42934;54.294;18.598;2023-08-06T10:23:33;99036.38;;;20.52;97.40
57048;BME280;42934;54.294;18.598;2023-08-06T10:26:06;99038.31;;;20.41;97.26
57048;BME280;42934;54.294;18.598;2023-08-06T10:28:36;99022.06;;;20.35;97.66
57048;BME280;42934;54.294;18.598;2023-08-06T10:31:05;99017.63;;;20.53;96.46
57048;BME280;42934;54.294;18.598;2023-08-06T10:33:42;99015.94;;;20.52;97.11
57048;BME280;42934;54.294;18.598;2023-08-06T10:36:14;99015.28;;;20.40;97.61
57048;BME280;42934;54.294;18.598;2023-08-06T10:38:49;99008.69;;;20.45;97.38
57048;BME280;42934;54.294;18.598;2023-08-06T10:41:27;98992.69;;;20.45;97.93
57048;BME280;42934;54.294;18.598;2023-08-06T10:44:06;98991.94;;;20.52;97.78
57048;BME280;42934;54.294;18.598;2023-08-06T10:46:37;98981.13;;;20.54;97.84
57048;BME280;42934;54.294;18.598;2023-08-06T10:49:07;98968.53;;;20.64;97.88
57048;BME280;42934;54.294;18.598;2023-08-06T10:51:38;98963.69;;;20.68;99.02
57048;BME280;42934;54.294;18.598;2023-08-06T10:54:07;98958.03;;;20.89;98.55
57048;BME280;42934;54.294;18.598;2023-08-06T10:56:40;98954.56;;;20.96;98.74
57048;BME280;42934;54.294;18.598;2023-08-06T10:59:10;98947.94;;;21.00;98.68
57048;BME280;42934;54.294;18.598;2023-08-06T11:01:39;98942.16;;;21.13;98.39
57048;BME280;42934;54.294;18.598;2023-08-06T11:04:09;98946.38;;;21.24;97.93
57048;BME280;42934;54.294;18.598;2023-08-06T11:06:45;98940.72;;;21.27;98.08
57048;BME280;42934;54.294;18.598;2023-08-06T11:09:21;98943.06;;;21.30;97.85
57048;BME280;42934;54.294;18.598;2023-08-06T11:11:50;98937.09;;;21.36;97.20
57048;BME280;42934;54.294;18.598;2023-08-06T11:14:20;98937.66;;;21.48;96.76
57048;BME280;42934;54.294;18.598;2023-08-06T11:16:49;98935.78;;;21.40;97.13
57048;BME280;42934;54.294;18.598;2023-08-06T11:19:19;98929.97;;;21.45;97.23
57048;BME280;42934;54.294;18.598;2023-08-06T11:21:50;98930.13;;;21.43;97.43
57048;BME280;42934;54.294;18.598;2023-08-06T11:24:20;98925.28;;;21.47;96.86
57048;BME280;42934;54.294;18.598;2023-08-06T11:26:49;98928.31;;;21.52;96.43
57048;BME280;42934;54.294;18.598;2023-08-06T11:29:19;98919.09;;;21.46;97.03
57048;BME280;42934;54.294;18.598;2023-08-06T11:31:49;98924.47;;;21.54;96.37
57048;BME280;42934;54.294;18.598;2023-08-06T11:34:19;98923.97;;;21.51;96.35
57048;BME280;42934;54.294;18.598;2023-08-06T11:36:50;98919.00;;;21.56;96.49
57048;BME280;42934;54.294;18.598;2023-08-06T11:39:19;98917.47;;;21.53;96.39
57048;BME280;42934;54.294;18.598;2023-08-06T11:41:48;98921.34;;;21.59;96.03
57048;BME280;42934;54.294;18.598;2023-08-06T11:44:19;98908.66;;;21.69;95.32
57048;BME280;42934;54.294;18.598;2023-08-06T11:46:50;98916.53;;;21.71;94.71
57048;BME280;42934;54.294;18.598;2023-08-06T11:49:34;98914.03;;;21.77;95.01
57048;BME280;42934;54.294;18.598;2023-08-06T11:52:14;98906.50;;;21.81;95.35
57048;BME280;42934;54.294;18.598;2023-08-06T11:54:43;98903.34;;;21.86;95.02
57048;BME280;42934;54.294;18.598;2023-08-06T11:57:12;98898.31;;;21.91;95.67
57048;BME280;42934;54.294;18.598;2023-08-06T11:59:45;98895.66;;;21.99;95.07
57048;BME280;42934;54.294;18.598;2023-08-06T12:02:15;98894.34;;;22.03;94.85
57048;BME280;42934;54.294;18.598;2023-08-06T12:04:57;98887.84;;;22.22;94.74
57048;BME280;42934;54.294;18.598;2023-08-06T12:07:29;98889.81;;;22.12;94.78
57048;BME280;42934;54.294;18.598;2023-08-06T12:09:59;98878.63;;;22.16;94.54
57048;BME280;42934;54.294;18.598;2023-08-06T12:12:29;98872.97;;;22.28;94.06
57048;BME280;42934;54.294;18.598;2023-08-06T12:14:59;98873.13;;;22.34;94.30
57048;BME280;42934;54.294;18.598;2023-08-06T12:17:28;98868.41;;;22.53;93.98
57048;BME280;42934;54.294;18.598;2023-08-06T12:19:57;98864.56;;;22.55;94.18
57048;BME280;42934;54.294;18.598;2023-08-06T12:22:28;98853.53;;;22.58;93.84
57048;BME280;42934;54.294;18.598;2023-08-06T12:25:00;98849.47;;;22.71;93.07
57048;BME280;42934;54.294;18.598;2023-08-06T12:27:30;98846.44;;;22.82;91.78
57048;BME280;42934;54.294;18.598;2023-08-06T12:29:59;98843.28;;;22.70;93.73
57048;BME280;42934;54.294;18.598;2023-08-06T12:32:28;98843.56;;;22.92;93.46
57048;BME280;42934;54.294;18.598;2023-08-06T12:34:58;98828.00;;;23.03;92.83
57048;BME280;42934;54.294;18.598;2023-08-06T12:37:29;98831.66;;;23.02;93.75
57048;BME280;42934;54.294;18.598;2023-08-06T12:39:59;98827.56;;;23.15;92.10
57048;BME280;42934;54.294;18.598;2023-08-06T12:42:46;98823.53;;;23.27;90.98
57048;BME280;42934;54.294;18.598;2023-08-06T12:45:17;98820.34;;;23.23;91.72
57048;BME280;42934;54.294;18.598;2023-08-06T12:47:49;98815.97;;;23.30;91.02
57048;BME280;42934;54.294;18.598;2023-08-06T12:50:19;98806.38;;;23.36;90.45
57048;BME280;42934;54.294;18.598;2023-08-06T12:52:49;98801.19;;;23.34;90.40
57048;BME280;42934;54.294;18.598;2023-08-06T12:55:20;98802.69;;;23.37;90.15
57048;BME280;42934;54.294;18.598;2023-08-06T12:57:50;98797.41;;;23.52;88.86
57048;BME280;42934;54.294;18.598;2023-08-06T13:00:26;98796.69;;;23.58;88.42
57048;BME280;42934;54.294;18.598;2023-08-06T13:02:55;98795.97;;;23.64;88.77
57048;BME280;42934;54.294;18.598;2023-08-06T13:05:25;98788.84;;;23.56;88.94